sensor_id;sensor_type;location;lat;lon;timestamp;P1;durP1;ratioP1;P2;durP2;ratioP2
50429;SDS011;36359;41.556;-8.418;2024-03-02T00:02:24;10.63;;;3.00;;
50429;SDS011;36359;41.556;-8.418;2024-03-02T00:04:50;11.40;;;2.53;;
50429;SDS011;36359;41.556;-8.418;2024-03-02T00:07:16;10.07;;;2.63;;
50429;SDS011;36359;41.556;-8.418;2024-03-02T00:09:42;13.83;;;3.63;;
50429;SDS011;36359;41.556;-8.418;2024-03-02T00:12:10;10.87;;;2.00;;
50429;SDS011;36359;41.556;-8.418;2024-03-02T00:14:41;7.33;;;2.47;;
50429;SDS011;36359;41.556;-8.418;2024-03-02T00:17:08;9.27;;;2.10;;
50429;SDS011;36359;41.556;-8.418;2024-03-02T00:19:51;10.80;;;2.30;;
50429;SDS011;36359;41.556;-8.418;2024-03-02T00:22:17;12.40;;;3.07;;
50429;SDS011;36359;41.556;-8.418;2024-03-02T00:24:43;14.23;;;3.20;;
50429;SDS011;36359;41.556;-8.418;2024-03-02T00:27:09;11.97;;;2.30;;
50429;SDS011;36359;41.556;-8.418;2024-03-02T00:29:40;11.25;;;2.35;;
50429;SDS011;36359;41.556;-8.418;2024-03-02T00:32:17;13.53;;;3.17;;
50429;SDS011;36359;41.556;-8.418;2024-03-02T00:34:42;9.77;;;2.30;;
50429;SDS011;36359;41.556;-8.418;2024-03-02T00:37:08;12.73;;;2.67;;
50429;SDS011;36359;41.556;-8.418;2024-03-02T00:39:34;15.20;;;3.17;;
50429;SDS011;36359;41.556;-8.418;2024-03-02T00:42:00;13.53;;;2.90;;
50429;SDS011;36359;41.556;-8.418;2024-03-02T00:44:26;15.23;;;2.80;;
50429;SDS011;36359;41.556;-8.418;2024-03-02T00:46:54;18.23;;;4.20;;
50429;SDS011;36359;41.556;-8.418;2024-03-02T00:49:21;17.20;;;3.77;;
50429;SDS011;36359;41.556;-8.418;2024-03-02T00:51:49;12.97;;;3.40;;
50429;SDS011;36359;41.556;-8.418;2024-03-02T00:54:18;17.90;;;3.73;;
50429;SDS011;36359;41.556;-8.418;2024-03-02T00:56:46;16.67;;;4.33;;
50429;SDS011;36359;41.556;-8.418;2024-03-02T00:59:12;14.40;;;3.53;;
50429;SDS011;36359;41.556;-8.418;2024-03-02T01:01:38;13.73;;;3.40;;
50429;SDS011;36359;41.556;-8.418;2024-03-02T01:04:04;16.13;;;3.00;;
50429;SDS011;36359;41.556;-8.418;2024-03-02T01:06:30;16.00;;;3.92;;
50429;SDS011;36359;41.556;-8.418;2024-03-02T01:08:56;21.70;;;3.80;;
50429;SDS011;36359;41.556;-8.418;2024-03-02T01:11:22;20.30;;;3.55;;
50429;SDS011;36359;41.556;-8.418;2024-03-02T01:13:47;13.02;;;3.20;;
50429;SDS011;36359;41.556;-8.418;2024-03-02T01:16:14;14.60;;;3.22;;
50429;SDS011;36359;41.556;-8.418;2024-03-02T01:18:41;17.17;;;3.17;;
50429;SDS011;36359;41.556;-8.418;2024-03-02T01:21:07;19.38;;;3.63;;
50429;SDS011;36359;41.556;-8.418;2024-03-02T01:23:33;14.20;;;3.70;;
50429;SDS011;36359;41.556;-8.418;2024-03-02T01:25:59;22.55;;;3.88;;
50429;SDS011;36359;41.556;-8.418;2024-03-02T01:28:25;20.83;;;4.23;;
50429;SDS011;36359;41.556;-8.418;2024-03-02T01:30:50;18.77;;;3.70;;
50429;SDS011;36359;41.556;-8.418;2024-03-02T01:33:16;25.73;;;3.87;;
50429;SDS011;36359;41.556;-8.418;2024-03-02T01:35:43;29.63;;;4.35;;
50429;SDS011;36359;41.556;-8.418;2024-03-02T01:38:09;14.02;;;2.85;;
50429;SDS011;36359;41.556;-8.418;2024-03-02T01:40:35;19.70;;;3.88;;
50429;SDS011;36359;41.556;-8.418;2024-03-02T01:43:01;17.00;;;3.60;;
50429;SDS011;36359;41.556;-8.418;2024-03-02T01:45:28;18.60;;;4.05;;
50429;SDS011;36359;41.556;-8.418;2024-03-02T01:47:54;24.88;;;4.32;;
50429;SDS011;36359;41.556;-8.418;2024-03-02T01:50:30;20.50;;;3.95;;
50429;SDS011;36359;41.556;-8.418;2024-03-02T01:52:57;16.65;;;3.10;;
50429;SDS011;36359;41.556;-8.418;2024-03-02T01:55:23;23.67;;;3.78;;
50429;SDS011;36359;41.556;-8.418;2024-03-02T01:57:49;16.40;;;4.13;;
50429;SDS011;36359;41.556;-8.418;2024-03-02T02:00:18;18.25;;;3.42;;
50429;SDS011;36359;41.556;-8.418;2024-03-02T02:02:45;17.95;;;3.47;;
50429;SDS011;36359;41.556;-8.418;2024-03-02T02:05:12;18.02;;;3.60;;
50429;SDS011;36359;41.556;-8.418;2024-03-02T02:07:40;21.42;;;3.97;;
50429;SDS011;36359;41.556;-8.418;2024-03-02T02:10:07;18.67;;;3.38;;
50429;SDS011;36359;41.556;-8.418;2024-03-02T02:12:33;24.23;;;4.13;;
50429;SDS011;36359;41.556;-8.418;2024-03-02T02:14:59;21.50;;;4.28;;
50429;SDS011;36359;41.556;-8.418;2024-03-02T02:17:24;20.35;;;4.20;;
50429;SDS011;36359;41.556;-8.418;2024-03-02T02:19:50;16.98;;;3.83;;
50429;SDS011;36359;41.556;-8.418;2024-03-02T02:22:16;16.95;;;3.60;;
50429;SDS011;36359;41.556;-8.418;2024-03-02T02:24:42;18.83;;;3.22;;
50429;SDS011;36359;41.556;-8.418;2024-03-02T02:27:08;15.82;;;3.40;;
50429;SDS011;36359;41.556;-8.418;2024-03-02T02:29:34;18.60;;;3.63;;
50429;SDS011;36359;41.556;-8.418;2024-03-02T02:32:00;22.10;;;4.53;;
50429;SDS011;36359;41.556;-8.418;2024-03-02T02:34:25;19.90;;;3.70;;
50429;SDS011;36359;41.556;-8.418;2024-03-02T02:36:51;16.30;;;3.47;;
50429;SDS011;36359;41.556;-8.418;2024-03-02T02:39:18;20.83;;;4.93;;
50429;SDS011;36359;41.556;-8.418;2024-03-02T02:41:46;20.95;;;4.45;;
50429;SDS011;36359;41.556;-8.418;2024-03-02T02:44:11;28.17;;;4.43;;
50429;SDS011;36359;41.556;-8.418;2024-03-02T02:46:38;18.73;;;3.90;;
50429;SDS011;36359;41.556;-8.418;2024-03-02T02:49:04;17.02;;;3.50;;
50429;SDS011;36359;41.556;-8.418;2024-03-02T02:51:30;21.50;;;4.03;;
50429;SDS011;36359;41.556;-8.418;2024-03-02T02:53:56;28.55;;;5.70;;
50429;SDS011;36359;41.556;-8.418;2024-03-02T02:56:22;24.40;;;4.95;;
50429;SDS011;36359;41.556;-8.418;2024-03-02T02:58:48;25.42;;;4.00;;
50429;SDS011;36359;41.556;-8.418;2024-03-02T03:01:17;26.55;;;5.35;;
50429;SDS011;36359;41.556;-8.418;2024-03-02T03:03:45;22.95;;;4.47;;
50429;SDS011;36359;41.556;-8.418;2024-03-02T03:06:11;21.02;;;4.05;;
50429;SDS011;36359;41.556;-8.418;2024-03-02T03:08:37;19.08;;;4.65;;
50429;SDS011;36359;41.556;-8.418;2024-03-02T03:11:04;26.13;;;3.70;;
50429;SDS011;36359;41.556;-8.418;2024-03-02T03:13:30;23.75;;;4.30;;
50429;SDS011;36359;41.556;-8.418;2024-03-02T03:15:57;28.83;;;5.20;;
50429;SDS011;36359;41.556;-8.418;2024-03-02T03:18:23;36.28;;;6.35;;
50429;SDS011;36359;41.556;-8.418;2024-03-02T03:20:48;22.73;;;5.82;;
50429;SDS011;36359;41.556;-8.418;2024-03-02T03:23:15;19.73;;;3.60;;
50429;SDS011;36359;41.556;-8.418;2024-03-02T03:25:42;19.30;;;4.22;;
50429;SDS011;36359;41.556;-8.418;2024-03-02T03:28:09;28.90;;;4.95;;
50429;SDS011;36359;41.556;-8.418;2024-03-02T03:30:38;14.02;;;2.85;;
50429;SDS011;36359;41.556;-8.418;2024-03-02T03:33:04;18.48;;;3.15;;
50429;SDS011;36359;41.556;-8.418;2024-03-02T03:35:32;21.17;;;3.78;;
50429;SDS011;36359;41.556;-8.418;2024-03-02T03:37:59;21.23;;;4.47;;
50429;SDS011;36359;41.556;-8.418;2024-03-02T03:40:24;22.23;;;4.03;;
50429;SDS011;36359;41.556;-8.418;2024-03-02T03:42:51;25.63;;;3.88;;
50429;SDS011;36359;41.556;-8.418;2024-03-02T03:45:17;25.88;;;5.10;;
50429;SDS011;36359;41.556;-8.418;2024-03-02T03:47:43;25.85;;;4.75;;
50429;SDS011;36359;41.556;-8.418;2024-03-02T03:50:08;29.00;;;4.40;;
50429;SDS011;36359;41.556;-8.418;2024-03-02T03:52:35;26.70;;;4.00;;
50429;SDS011;36359;41.556;-8.418;2024-03-02T03:55:00;30.92;;;4.88;;
50429;SDS011;36359;41.556;-8.418;2024-03-02T03:57:26;20.88;;;4.10;;
50429;SDS011;36359;41.556;-8.418;2024-03-02T03:59:52;29.73;;;4.63;;
50429;SDS011;36359;41.556;-8.418;2024-03-02T04:02:19;24.20;;;4.25;;
50429;SDS011;36359;41.556;-8.418;2024-03-02T04:04:44;17.75;;;3.35;;
50429;SDS011;36359;41.556;-8.418;2024-03-02T04:07:11;24.17;;;3.78;;
50429;SDS011;36359;41.556;-8.418;2024-03-02T04:09:37;23.08;;;3.90;;
50429;SDS011;36359;41.556;-8.418;2024-03-02T04:12:03;24.70;;;4.50;;
50429;SDS011;36359;41.556;-8.418;2024-03-02T04:14:29;30.52;;;4.90;;
50429;SDS011;36359;41.556;-8.418;2024-03-02T04:16:55;30.87;;;4.97;;
50429;SDS011;36359;41.556;-8.418;2024-03-02T04:19:20;12.63;;;3.10;;
50429;SDS011;36359;41.556;-8.418;2024-03-02T04:24:19;23.73;;;4.03;;
50429;SDS011;36359;41.556;-8.418;2024-03-02T04:26:45;22.00;;;4.15;;
50429;SDS011;36359;41.556;-8.418;2024-03-02T04:29:10;22.45;;;4.53;;
50429;SDS011;36359;41.556;-8.418;2024-03-02T04:31:36;20.90;;;3.60;;
50429;SDS011;36359;41.556;-8.418;2024-03-02T04:34:02;23.70;;;4.28;;
50429;SDS011;36359;41.556;-8.418;2024-03-02T04:36:27;18.73;;;3.17;;
50429;SDS011;36359;41.556;-8.418;2024-03-02T04:38:53;19.42;;;4.13;;
50429;SDS011;36359;41.556;-8.418;2024-03-02T04:41:19;14.95;;;3.28;;
50429;SDS011;36359;41.556;-8.418;2024-03-02T04:43:44;13.45;;;2.85;;
50429;SDS011;36359;41.556;-8.418;2024-03-02T04:46:10;24.43;;;4.10;;
50429;SDS011;36359;41.556;-8.418;2024-03-02T04:48:36;13.60;;;2.73;;
50429;SDS011;36359;41.556;-8.418;2024-03-02T04:51:01;20.73;;;3.97;;
50429;SDS011;36359;41.556;-8.418;2024-03-02T04:53:27;16.00;;;3.17;;
50429;SDS011;36359;41.556;-8.418;2024-03-02T04:55:53;19.60;;;3.77;;
50429;SDS011;36359;41.556;-8.418;2024-03-02T04:58:37;19.27;;;2.72;;
50429;SDS011;36359;41.556;-8.418;2024-03-02T05:01:03;16.73;;;3.08;;
50429;SDS011;36359;41.556;-8.418;2024-03-02T05:03:29;20.95;;;3.55;;
50429;SDS011;36359;41.556;-8.418;2024-03-02T05:05:54;19.92;;;3.50;;
50429;SDS011;36359;41.556;-8.418;2024-03-02T05:08:21;11.30;;;2.22;;
50429;SDS011;36359;41.556;-8.418;2024-03-02T05:10:47;18.67;;;3.25;;
50429;SDS011;36359;41.556;-8.418;2024-03-02T05:13:12;18.73;;;2.75;;
50429;SDS011;36359;41.556;-8.418;2024-03-02T05:15:38;12.25;;;2.58;;
50429;SDS011;36359;41.556;-8.418;2024-03-02T05:18:04;21.10;;;2.93;;
50429;SDS011;36359;41.556;-8.418;2024-03-02T05:20:30;18.42;;;3.03;;
50429;SDS011;36359;41.556;-8.418;2024-03-02T05:22:56;21.63;;;3.00;;
50429;SDS011;36359;41.556;-8.418;2024-03-02T05:25:21;14.27;;;2.67;;
50429;SDS011;36359;41.556;-8.418;2024-03-02T05:27:48;18.15;;;3.00;;
50429;SDS011;36359;41.556;-8.418;2024-03-02T05:30:13;14.93;;;2.73;;
50429;SDS011;36359;41.556;-8.418;2024-03-02T05:32:40;14.98;;;3.17;;
50429;SDS011;36359;41.556;-8.418;2024-03-02T05:35:06;17.55;;;3.17;;
50429;SDS011;36359;41.556;-8.418;2024-03-02T05:37:33;16.80;;;2.80;;
50429;SDS011;36359;41.556;-8.418;2024-03-02T05:39:59;17.05;;;3.38;;
50429;SDS011;36359;41.556;-8.418;2024-03-02T05:42:25;15.35;;;3.70;;
50429;SDS011;36359;41.556;-8.418;2024-03-02T05:44:50;17.65;;;3.30;;
50429;SDS011;36359;41.556;-8.418;2024-03-02T05:47:16;15.00;;;2.78;;
50429;SDS011;36359;41.556;-8.418;2024-03-02T05:49:42;10.88;;;2.90;;
50429;SDS011;36359;41.556;-8.418;2024-03-02T05:52:08;17.00;;;2.45;;
50429;SDS011;36359;41.556;-8.418;2024-03-02T05:54:34;19.35;;;2.70;;
50429;SDS011;36359;41.556;-8.418;2024-03-02T05:56:59;21.38;;;3.92;;
50429;SDS011;36359;41.556;-8.418;2024-03-02T05:59:42;14.32;;;2.83;;
50429;SDS011;36359;41.556;-8.418;2024-03-02T06:02:08;22.67;;;3.43;;
50429;SDS011;36359;41.556;-8.418;2024-03-02T06:04:34;26.83;;;3.55;;
50429;SDS011;36359;41.556;-8.418;2024-03-02T06:07:00;17.80;;;3.20;;
50429;SDS011;36359;41.556;-8.418;2024-03-02T06:09:25;19.43;;;2.90;;
50429;SDS011;36359;41.556;-8.418;2024-03-02T06:11:51;17.52;;;2.95;;
50429;SDS011;36359;41.556;-8.418;2024-03-02T06:14:17;16.67;;;2.92;;
50429;SDS011;36359;41.556;-8.418;2024-03-02T06:16:43;21.35;;;3.58;;
50429;SDS011;36359;41.556;-8.418;2024-03-02T06:19:08;17.07;;;2.40;;
50429;SDS011;36359;41.556;-8.418;2024-03-02T06:21:34;20.17;;;2.67;;
50429;SDS011;36359;41.556;-8.418;2024-03-02T06:24:00;18.02;;;2.58;;
50429;SDS011;36359;41.556;-8.418;2024-03-02T06:26:26;15.88;;;3.17;;
50429;SDS011;36359;41.556;-8.418;2024-03-02T06:28:52;12.82;;;2.40;;
50429;SDS011;36359;41.556;-8.418;2024-03-02T06:31:18;16.50;;;2.57;;
50429;SDS011;36359;41.556;-8.418;2024-03-02T06:33:43;14.73;;;2.63;;
50429;SDS011;36359;41.556;-8.418;2024-03-02T06:36:09;13.77;;;2.17;;
50429;SDS011;36359;41.556;-8.418;2024-03-02T06:38:37;13.55;;;2.55;;
50429;SDS011;36359;41.556;-8.418;2024-03-02T06:41:03;14.48;;;2.45;;
50429;SDS011;36359;41.556;-8.418;2024-03-02T06:43:28;14.63;;;2.47;;
50429;SDS011;36359;41.556;-8.418;2024-03-02T06:45:54;16.13;;;3.00;;
50429;SDS011;36359;41.556;-8.418;2024-03-02T06:48:20;14.13;;;2.70;;
50429;SDS011;36359;41.556;-8.418;2024-03-02T06:50:46;16.05;;;2.65;;
50429;SDS011;36359;41.556;-8.418;2024-03-02T06:53:16;19.38;;;2.72;;
50429;SDS011;36359;41.556;-8.418;2024-03-02T06:55:43;15.17;;;2.60;;
50429;SDS011;36359;41.556;-8.418;2024-03-02T06:58:11;17.42;;;3.22;;
50429;SDS011;36359;41.556;-8.418;2024-03-02T07:00:37;14.80;;;2.45;;
50429;SDS011;36359;41.556;-8.418;2024-03-02T07:03:03;13.70;;;2.13;;
50429;SDS011;36359;41.556;-8.418;2024-03-02T07:05:29;12.00;;;2.03;;
50429;SDS011;36359;41.556;-8.418;2024-03-02T07:07:55;15.13;;;2.03;;
50429;SDS011;36359;41.556;-8.418;2024-03-02T07:10:21;12.93;;;3.00;;
50429;SDS011;36359;41.556;-8.418;2024-03-02T07:12:46;12.00;;;2.20;;
50429;SDS011;36359;41.556;-8.418;2024-03-02T07:15:12;9.05;;;1.80;;
50429;SDS011;36359;41.556;-8.418;2024-03-02T07:17:53;14.43;;;2.30;;
50429;SDS011;36359;41.556;-8.418;2024-03-02T07:20:18;11.57;;;2.17;;
50429;SDS011;36359;41.556;-8.418;2024-03-02T07:22:44;11.00;;;2.25;;
50429;SDS011;36359;41.556;-8.418;2024-03-02T07:25:10;16.55;;;2.53;;
50429;SDS011;36359;41.556;-8.418;2024-03-02T07:27:36;14.02;;;2.67;;
50429;SDS011;36359;41.556;-8.418;2024-03-02T07:30:02;15.25;;;2.60;;
50429;SDS011;36359;41.556;-8.418;2024-03-02T07:32:29;14.47;;;2.50;;
50429;SDS011;36359;41.556;-8.418;2024-03-02T07:34:54;20.20;;;2.93;;
50429;SDS011;36359;41.556;-8.418;2024-03-02T07:37:21;15.85;;;2.72;;
50429;SDS011;36359;41.556;-8.418;2024-03-02T07:39:48;14.77;;;2.20;;
50429;SDS011;36359;41.556;-8.418;2024-03-02T07:42:14;12.77;;;1.98;;
50429;SDS011;36359;41.556;-8.418;2024-03-02T07:44:40;14.73;;;2.47;;
50429;SDS011;36359;41.556;-8.418;2024-03-02T07:47:06;12.23;;;2.50;;
50429;SDS011;36359;41.556;-8.418;2024-03-02T07:49:31;15.30;;;2.67;;
50429;SDS011;36359;41.556;-8.418;2024-03-02T07:51:57;12.52;;;2.08;;
50429;SDS011;36359;41.556;-8.418;2024-03-02T07:54:23;12.60;;;2.22;;
50429;SDS011;36359;41.556;-8.418;2024-03-02T07:56:54;16.67;;;2.50;;
50429;SDS011;36359;41.556;-8.418;2024-03-02T07:59:19;11.45;;;2.67;;
50429;SDS011;36359;41.556;-8.418;2024-03-02T08:01:48;10.70;;;1.70;;
50429;SDS011;36359;41.556;-8.418;2024-03-02T08:04:14;12.77;;;2.80;;
50429;SDS011;36359;41.556;-8.418;2024-03-02T08:06:40;15.40;;;2.88;;
50429;SDS011;36359;41.556;-8.418;2024-03-02T08:09:05;14.10;;;2.23;;
50429;SDS011;36359;41.556;-8.418;2024-03-02T08:11:35;13.25;;;2.05;;
50429;SDS011;36359;41.556;-8.418;2024-03-02T08:14:01;16.43;;;2.40;;
50429;SDS011;36359;41.556;-8.418;2024-03-02T08:16:26;18.40;;;3.45;;
50429;SDS011;36359;41.556;-8.418;2024-03-02T08:18:52;11.38;;;1.95;;
50429;SDS011;36359;41.556;-8.418;2024-03-02T08:21:18;24.75;;;3.17;;
50429;SDS011;36359;41.556;-8.418;2024-03-02T08:23:44;21.35;;;3.40;;
50429;SDS011;36359;41.556;-8.418;2024-03-02T08:26:10;9.95;;;2.47;;
50429;SDS011;36359;41.556;-8.418;2024-03-02T08:28:36;19.38;;;3.45;;
50429;SDS011;36359;41.556;-8.418;2024-03-02T08:31:06;17.40;;;2.95;;
50429;SDS011;36359;41.556;-8.418;2024-03-02T08:33:32;21.27;;;4.03;;
50429;SDS011;36359;41.556;-8.418;2024-03-02T08:35:58;17.48;;;3.28;;
50429;SDS011;36359;41.556;-8.418;2024-03-02T08:38:25;23.27;;;3.50;;
50429;SDS011;36359;41.556;-8.418;2024-03-02T08:40:51;20.57;;;3.17;;
50429;SDS011;36359;41.556;-8.418;2024-03-02T08:43:17;17.30;;;3.17;;
50429;SDS011;36359;41.556;-8.418;2024-03-02T08:45:43;13.33;;;2.87;;
50429;SDS011;36359;41.556;-8.418;2024-03-02T08:48:09;21.70;;;3.30;;
50429;SDS011;36359;41.556;-8.418;2024-03-02T08:50:35;20.67;;;3.35;;
50429;SDS011;36359;41.556;-8.418;2024-03-02T08:53:01;19.13;;;3.13;;
50429;SDS011;36359;41.556;-8.418;2024-03-02T08:55:29;19.63;;;3.00;;
50429;SDS011;36359;41.556;-8.418;2024-03-02T08:57:55;18.03;;;2.87;;
50429;SDS011;36359;41.556;-8.418;2024-03-02T09:00:21;13.70;;;2.07;;
50429;SDS011;36359;41.556;-8.418;2024-03-02T09:02:47;14.77;;;2.13;;
50429;SDS011;36359;41.556;-8.418;2024-03-02T09:05:13;14.93;;;2.73;;
50429;SDS011;36359;41.556;-8.418;2024-03-02T09:07:39;18.87;;;2.67;;
50429;SDS011;36359;41.556;-8.418;2024-03-02T09:10:05;19.03;;;3.17;;
50429;SDS011;36359;41.556;-8.418;2024-03-02T09:12:31;18.57;;;2.93;;
50429;SDS011;36359;41.556;-8.418;2024-03-02T09:14:58;11.53;;;2.33;;
50429;SDS011;36359;41.556;-8.418;2024-03-02T09:17:25;7.83;;;1.93;;
50429;SDS011;36359;41.556;-8.418;2024-03-02T09:19:51;8.50;;;1.20;;
50429;SDS011;36359;41.556;-8.418;2024-03-02T09:22:18;9.00;;;1.43;;
50429;SDS011;36359;41.556;-8.418;2024-03-02T09:24:44;9.33;;;1.37;;
50429;SDS011;36359;41.556;-8.418;2024-03-02T09:27:10;8.47;;;1.53;;
50429;SDS011;36359;41.556;-8.418;2024-03-02T09:29:36;11.67;;;1.83;;
50429;SDS011;36359;41.556;-8.418;2024-03-02T09:32:02;13.27;;;1.80;;
50429;SDS011;36359;41.556;-8.418;2024-03-02T09:34:27;14.23;;;2.50;;
50429;SDS011;36359;41.556;-8.418;2024-03-02T09:36:53;10.83;;;1.93;;
50429;SDS011;36359;41.556;-8.418;2024-03-02T09:39:19;14.87;;;2.43;;
50429;SDS011;36359;41.556;-8.418;2024-03-02T09:41:45;11.30;;;2.00;;
50429;SDS011;36359;41.556;-8.418;2024-03-02T09:44:12;17.60;;;2.63;;
50429;SDS011;36359;41.556;-8.418;2024-03-02T09:46:38;18.10;;;2.37;;
50429;SDS011;36359;41.556;-8.418;2024-03-02T09:49:03;14.30;;;2.20;;
50429;SDS011;36359;41.556;-8.418;2024-03-02T09:51:30;9.93;;;2.23;;
50429;SDS011;36359;41.556;-8.418;2024-03-02T09:53:56;16.27;;;2.33;;
50429;SDS011;36359;41.556;-8.418;2024-03-02T09:56:22;22.97;;;3.27;;
50429;SDS011;36359;41.556;-8.418;2024-03-02T09:58:48;16.13;;;2.63;;
50429;SDS011;36359;41.556;-8.418;2024-03-02T10:01:14;14.73;;;1.93;;
50429;SDS011;36359;41.556;-8.418;2024-03-02T10:03:40;13.20;;;1.80;;
50429;SDS011;36359;41.556;-8.418;2024-03-02T10:06:25;11.93;;;2.50;;
50429;SDS011;36359;41.556;-8.418;2024-03-02T10:08:53;17.53;;;2.73;;
50429;SDS011;36359;41.556;-8.418;2024-03-02T10:11:33;14.23;;;1.90;;
50429;SDS011;36359;41.556;-8.418;2024-03-02T10:16:39;6.43;;;0.60;;
50429;SDS011;36359;41.556;-8.418;2024-03-02T10:19:15;6.77;;;1.20;;
50429;SDS011;36359;41.556;-8.418;2024-03-02T10:21:47;6.90;;;1.03;;
50429;SDS011;36359;41.556;-8.418;2024-03-02T10:24:20;5.80;;;0.90;;
50429;SDS011;36359;41.556;-8.418;2024-03-02T10:26:47;4.97;;;0.80;;
50429;SDS011;36359;41.556;-8.418;2024-03-02T10:29:13;9.87;;;1.37;;
50429;SDS011;36359;41.556;-8.418;2024-03-02T10:31:39;4.87;;;0.80;;
50429;SDS011;36359;41.556;-8.418;2024-03-02T10:34:07;7.07;;;0.77;;
50429;SDS011;36359;41.556;-8.418;2024-03-02T10:36:34;8.43;;;1.50;;
50429;SDS011;36359;41.556;-8.418;2024-03-02T10:39:03;6.03;;;1.00;;
50429;SDS011;36359;41.556;-8.418;2024-03-02T10:41:33;2.73;;;0.50;;
50429;SDS011;36359;41.556;-8.418;2024-03-02T10:44:01;5.60;;;1.20;;
50429;SDS011;36359;41.556;-8.418;2024-03-02T10:46:29;5.47;;;0.80;;
50429;SDS011;36359;41.556;-8.418;2024-03-02T10:48:57;5.87;;;0.70;;
50429;SDS011;36359;41.556;-8.418;2024-03-02T10:51:25;3.87;;;1.20;;
50429;SDS011;36359;41.556;-8.418;2024-03-02T10:53:52;3.67;;;0.80;;
50429;SDS011;36359;41.556;-8.418;2024-03-02T10:56:21;4.23;;;0.80;;
50429;SDS011;36359;41.556;-8.418;2024-03-02T10:58:51;5.77;;;0.70;;
50429;SDS011;36359;41.556;-8.418;2024-03-02T11:01:26;4.07;;;0.37;;
50429;SDS011;36359;41.556;-8.418;2024-03-02T11:03:54;1.83;;;0.30;;
50429;SDS011;36359;41.556;-8.418;2024-03-02T11:06:21;1.67;;;0.20;;
50429;SDS011;36359;41.556;-8.418;2024-03-02T11:08:49;2.70;;;0.57;;
50429;SDS011;36359;41.556;-8.418;2024-03-02T11:11:21;5.43;;;0.70;;
50429;SDS011;36359;41.556;-8.418;2024-03-02T11:13:54;2.00;;;0.37;;
50429;SDS011;36359;41.556;-8.418;2024-03-02T11:16:34;0.90;;;0.30;;
50429;SDS011;36359;41.556;-8.418;2024-03-02T11:19:05;1.13;;;0.37;;
50429;SDS011;36359;41.556;-8.418;2024-03-02T11:21:34;1.00;;;0.40;;
50429;SDS011;36359;41.556;-8.418;2024-03-02T11:24:03;2.47;;;0.33;;
50429;SDS011;36359;41.556;-8.418;2024-03-02T11:26:46;3.97;;;0.67;;
50429;SDS011;36359;41.556;-8.418;2024-03-02T11:29:42;1.83;;;0.40;;
50429;SDS011;36359;41.556;-8.418;2024-03-02T11:32:01;1.97;;;0.60;;
50429;SDS011;36359;41.556;-8.418;2024-03-02T11:37:02;3.13;;;0.50;;
50429;SDS011;36359;41.556;-8.418;2024-03-02T11:39:29;3.87;;;0.90;;
50429;SDS011;36359;41.556;-8.418;2024-03-02T11:41:55;3.93;;;0.70;;
50429;SDS011;36359;41.556;-8.418;2024-03-02T11:44:22;3.80;;;0.90;;
50429;SDS011;36359;41.556;-8.418;2024-03-02T11:49:36;3.93;;;0.80;;
50429;SDS011;36359;41.556;-8.418;2024-03-02T11:52:07;2.70;;;0.67;;
50429;SDS011;36359;41.556;-8.418;2024-03-02T11:57:08;2.40;;;0.60;;
50429;SDS011;36359;41.556;-8.418;2024-03-02T11:59:34;4.27;;;0.50;;
50429;SDS011;36359;41.556;-8.418;2024-03-02T12:02:00;3.53;;;0.80;;
50429;SDS011;36359;41.556;-8.418;2024-03-02T12:04:26;2.40;;;0.70;;
50429;SDS011;36359;41.556;-8.418;2024-03-02T12:06:58;3.93;;;0.83;;
50429;SDS011;36359;41.556;-8.418;2024-03-02T12:09:26;3.23;;;0.87;;
50429;SDS011;36359;41.556;-8.418;2024-03-02T12:12:08;2.73;;;0.80;;
50429;SDS011;36359;41.556;-8.418;2024-03-02T12:14:35;3.77;;;0.60;;
50429;SDS011;36359;41.556;-8.418;2024-03-02T12:17:03;3.57;;;0.77;;
50429;SDS011;36359;41.556;-8.418;2024-03-02T12:19:30;3.40;;;0.73;;
50429;SDS011;36359;41.556;-8.418;2024-03-02T12:21:57;3.23;;;0.97;;
50429;SDS011;36359;41.556;-8.418;2024-03-02T12:24:23;3.60;;;0.70;;
50429;SDS011;36359;41.556;-8.418;2024-03-02T12:26:52;2.90;;;0.70;;
50429;SDS011;36359;41.556;-8.418;2024-03-02T12:29:19;5.30;;;2.50;;
50429;SDS011;36359;41.556;-8.418;2024-03-02T12:31:49;7.20;;;2.27;;
50429;SDS011;36359;41.556;-8.418;2024-03-02T12:34:17;4.17;;;0.87;;
50429;SDS011;36359;41.556;-8.418;2024-03-02T12:36:43;3.33;;;0.67;;
50429;SDS011;36359;41.556;-8.418;2024-03-02T12:39:13;3.43;;;0.77;;
50429;SDS011;36359;41.556;-8.418;2024-03-02T12:41:39;4.50;;;0.70;;
50429;SDS011;36359;41.556;-8.418;2024-03-02T12:44:05;5.03;;;0.50;;
50429;SDS011;36359;41.556;-8.418;2024-03-02T12:46:31;3.60;;;0.70;;
50429;SDS011;36359;41.556;-8.418;2024-03-02T12:49:08;4.97;;;0.60;;
50429;SDS011;36359;41.556;-8.418;2024-03-02T12:51:36;5.03;;;0.70;;
50429;SDS011;36359;41.556;-8.418;2024-03-02T12:54:02;3.17;;;0.80;;
50429;SDS011;36359;41.556;-8.418;2024-03-02T12:56:28;4.87;;;1.07;;
50429;SDS011;36359;41.556;-8.418;2024-03-02T12:58:55;6.87;;;1.13;;
50429;SDS011;36359;41.556;-8.418;2024-03-02T13:01:21;3.57;;;1.00;;
50429;SDS011;36359;41.556;-8.418;2024-03-02T13:03:50;4.40;;;1.30;;
50429;SDS011;36359;41.556;-8.418;2024-03-02T13:06:25;3.60;;;1.00;;
50429;SDS011;36359;41.556;-8.418;2024-03-02T13:08:54;12.83;;;6.13;;
50429;SDS011;36359;41.556;-8.418;2024-03-02T13:11:21;16.33;;;8.60;;
50429;SDS011;36359;41.556;-8.418;2024-03-02T13:13:50;9.00;;;4.33;;
50429;SDS011;36359;41.556;-8.418;2024-03-02T13:16:16;11.40;;;7.07;;
50429;SDS011;36359;41.556;-8.418;2024-03-02T13:18:44;10.73;;;4.03;;
50429;SDS011;36359;41.556;-8.418;2024-03-02T13:21:10;9.67;;;2.80;;
50429;SDS011;36359;41.556;-8.418;2024-03-02T13:23:36;9.60;;;2.10;;
50429;SDS011;36359;41.556;-8.418;2024-03-02T13:26:02;6.33;;;1.33;;
50429;SDS011;36359;41.556;-8.418;2024-03-02T13:28:28;5.90;;;1.40;;
50429;SDS011;36359;41.556;-8.418;2024-03-02T13:30:53;7.32;;;1.67;;
50429;SDS011;36359;41.556;-8.418;2024-03-02T13:33:19;7.87;;;1.63;;
50429;SDS011;36359;41.556;-8.418;2024-03-02T13:35:50;6.17;;;1.03;;
50429;SDS011;36359;41.556;-8.418;2024-03-02T13:38:17;5.60;;;1.20;;
50429;SDS011;36359;41.556;-8.418;2024-03-02T13:40:46;7.07;;;1.30;;
50429;SDS011;36359;41.556;-8.418;2024-03-02T13:43:17;6.73;;;1.10;;
50429;SDS011;36359;41.556;-8.418;2024-03-02T13:45:46;6.57;;;1.63;;
50429;SDS011;36359;41.556;-8.418;2024-03-02T13:48:12;9.10;;;2.00;;
50429;SDS011;36359;41.556;-8.418;2024-03-02T13:50:39;9.60;;;1.50;;
50429;SDS011;36359;41.556;-8.418;2024-03-02T13:53:06;6.20;;;1.17;;
50429;SDS011;36359;41.556;-8.418;2024-03-02T13:55:32;4.60;;;1.10;;
50429;SDS011;36359;41.556;-8.418;2024-03-02T13:57:58;8.53;;;1.23;;
50429;SDS011;36359;41.556;-8.418;2024-03-02T14:00:24;8.87;;;1.57;;
50429;SDS011;36359;41.556;-8.418;2024-03-02T14:02:50;10.77;;;1.63;;
50429;SDS011;36359;41.556;-8.418;2024-03-02T14:05:16;7.67;;;1.70;;
50429;SDS011;36359;41.556;-8.418;2024-03-02T14:07:42;11.13;;;1.23;;
50429;SDS011;36359;41.556;-8.418;2024-03-02T14:10:09;6.60;;;1.10;;
50429;SDS011;36359;41.556;-8.418;2024-03-02T14:12:36;6.03;;;0.90;;
50429;SDS011;36359;41.556;-8.418;2024-03-02T14:15:02;6.70;;;0.83;;
50429;SDS011;36359;41.556;-8.418;2024-03-02T14:17:28;5.57;;;0.90;;
50429;SDS011;36359;41.556;-8.418;2024-03-02T14:19:57;6.33;;;1.20;;
50429;SDS011;36359;41.556;-8.418;2024-03-02T14:22:24;9.43;;;1.40;;
50429;SDS011;36359;41.556;-8.418;2024-03-02T14:24:50;7.43;;;1.00;;
50429;SDS011;36359;41.556;-8.418;2024-03-02T14:27:16;6.80;;;1.43;;
50429;SDS011;36359;41.556;-8.418;2024-03-02T14:29:42;8.37;;;1.27;;
50429;SDS011;36359;41.556;-8.418;2024-03-02T14:32:08;8.27;;;1.00;;
50429;SDS011;36359;41.556;-8.418;2024-03-02T14:34:34;4.20;;;0.70;;
50429;SDS011;36359;41.556;-8.418;2024-03-02T14:37:00;9.97;;;1.10;;
50429;SDS011;36359;41.556;-8.418;2024-03-02T14:39:26;10.40;;;1.20;;